sensor_id;sensor_type;location;lat;lon;timestamp;P1;durP1;ratioP1;P2;durP2;ratioP2
66127;SDS011;52925;52.436;-1.952;2022-12-20T00:00:14;1.47;;;1.00;;
66127;SDS011;52925;52.436;-1.952;2022-12-20T00:01:36;1.33;;;0.93;;
66127;SDS011;52925;52.436;-1.952;2022-12-20T00:02:58;1.33;;;0.77;;
66127;SDS011;52925;52.436;-1.952;2022-12-20T00:04:17;1.37;;;0.80;;
66127;SDS011;52925;52.436;-1.952;2022-12-20T00:05:39;1.23;;;0.87;;
66127;SDS011;52925;52.436;-1.952;2022-12-20T00:06:59;1.57;;;1.00;;
66127;SDS011;52925;52.436;-1.952;2022-12-20T00:08:20;1.33;;;0.80;;
66127;SDS011;52925;52.436;-1.952;2022-12-20T00:09:40;1.70;;;0.80;;
66127;SDS011;52925;52.436;-1.952;2022-12-20T00:11:01;1.70;;;1.00;;
66127;SDS011;52925;52.436;-1.952;2022-12-20T00:12:23;1.93;;;0.83;;
66127;SDS011;52925;52.436;-1.952;2022-12-20T00:13:44;1.90;;;1.00;;
66127;SDS011;52925;52.436;-1.952;2022-12-20T00:15:05;1.77;;;0.70;;
66127;SDS011;52925;52.436;-1.952;2022-12-20T00:16:27;1.50;;;1.00;;
66127;SDS011;52925;52.436;-1.952;2022-12-20T00:17:49;1.63;;;0.90;;
66127;SDS011;52925;52.436;-1.952;2022-12-20T00:19:11;0.93;;;0.60;;
66127;SDS011;52925;52.436;-1.952;2022-12-20T00:20:32;0.87;;;0.60;;
66127;SDS011;52925;52.436;-1.952;2022-12-20T00:21:52;1.33;;;0.90;;
66127;SDS011;52925;52.436;-1.952;2022-12-20T00:23:13;1.10;;;0.70;;
66127;SDS011;52925;52.436;-1.952;2022-12-20T00:24:33;1.37;;;0.70;;
66127;SDS011;52925;52.436;-1.952;2022-12-20T00:25:58;0.93;;;0.70;;
66127;SDS011;52925;52.436;-1.952;2022-12-20T00:27:19;1.07;;;0.63;;
66127;SDS011;52925;52.436;-1.952;2022-12-20T00:28:40;1.20;;;0.83;;
66127;SDS011;52925;52.436;-1.952;2022-12-20T00:30:01;0.80;;;0.63;;
66127;SDS011;52925;52.436;-1.952;2022-12-20T00:31:22;1.37;;;0.73;;
66127;SDS011;52925;52.436;-1.952;2022-12-20T00:32:45;1.60;;;0.70;;
66127;SDS011;52925;52.436;-1.952;2022-12-20T00:34:05;1.37;;;0.70;;
66127;SDS011;52925;52.436;-1.952;2022-12-20T00:35:30;0.80;;;0.50;;
66127;SDS011;52925;52.436;-1.952;2022-12-20T00:36:52;1.00;;;0.90;;
66127;SDS011;52925;52.436;-1.952;2022-12-20T00:38:12;1.10;;;0.70;;
66127;SDS011;52925;52.436;-1.952;2022-12-20T00:39:32;0.87;;;0.50;;
66127;SDS011;52925;52.436;-1.952;2022-12-20T00:41:00;1.03;;;0.63;;
66127;SDS011;52925;52.436;-1.952;2022-12-20T00:42:22;1.20;;;0.50;;
66127;SDS011;52925;52.436;-1.952;2022-12-20T00:43:43;0.60;;;0.50;;
66127;SDS011;52925;52.436;-1.952;2022-12-20T00:45:03;0.63;;;0.40;;
66127;SDS011;52925;52.436;-1.952;2022-12-20T00:46:24;0.50;;;0.37;;
66127;SDS011;52925;52.436;-1.952;2022-12-20T00:47:45;1.53;;;0.40;;
66127;SDS011;52925;52.436;-1.952;2022-12-20T00:49:05;1.13;;;0.50;;
66127;SDS011;52925;52.436;-1.952;2022-12-20T00:50:26;0.97;;;0.57;;
66127;SDS011;52925;52.436;-1.952;2022-12-20T00:51:48;0.70;;;0.40;;
66127;SDS011;52925;52.436;-1.952;2022-12-20T00:53:08;0.93;;;0.53;;
66127;SDS011;52925;52.436;-1.952;2022-12-20T00:54:28;0.67;;;0.37;;
66127;SDS011;52925;52.436;-1.952;2022-12-20T00:55:49;0.50;;;0.40;;
66127;SDS011;52925;52.436;-1.952;2022-12-20T00:57:09;0.53;;;0.43;;
66127;SDS011;52925;52.436;-1.952;2022-12-20T00:58:30;0.47;;;0.40;;
66127;SDS011;52925;52.436;-1.952;2022-12-20T00:59:52;0.50;;;0.40;;
66127;SDS011;52925;52.436;-1.952;2022-12-20T01:01:14;0.90;;;0.50;;
66127;SDS011;52925;52.436;-1.952;2022-12-20T01:02:36;0.33;;;0.33;;
66127;SDS011;52925;52.436;-1.952;2022-12-20T01:03:58;1.07;;;0.50;;
66127;SDS011;52925;52.436;-1.952;2022-12-20T01:05:19;0.60;;;0.40;;
66127;SDS011;52925;52.436;-1.952;2022-12-20T01:06:39;0.70;;;0.60;;
66127;SDS011;52925;52.436;-1.952;2022-12-20T01:08:01;0.63;;;0.30;;
66127;SDS011;52925;52.436;-1.952;2022-12-20T01:09:22;0.33;;;0.30;;
66127;SDS011;52925;52.436;-1.952;2022-12-20T01:10:42;0.70;;;0.37;;
66127;SDS011;52925;52.436;-1.952;2022-12-20T01:12:02;0.70;;;0.30;;
66127;SDS011;52925;52.436;-1.952;2022-12-20T01:13:24;0.67;;;0.30;;
66127;SDS011;52925;52.436;-1.952;2022-12-20T01:14:44;0.30;;;0.30;;
66127;SDS011;52925;52.436;-1.952;2022-12-20T01:16:05;0.73;;;0.47;;
66127;SDS011;52925;52.436;-1.952;2022-12-20T01:17:26;0.33;;;0.33;;
66127;SDS011;52925;52.436;-1.952;2022-12-20T01:18:47;0.60;;;0.30;;
66127;SDS011;52925;52.436;-1.952;2022-12-20T01:20:08;0.67;;;0.40;;
66127;SDS011;52925;52.436;-1.952;2022-12-20T01:21:30;0.30;;;0.20;;
66127;SDS011;52925;52.436;-1.952;2022-12-20T01:22:50;0.50;;;0.33;;
66127;SDS011;52925;52.436;-1.952;2022-12-20T01:24:12;0.50;;;0.30;;
66127;SDS011;52925;52.436;-1.952;2022-12-20T01:25:33;0.50;;;0.40;;
66127;SDS011;52925;52.436;-1.952;2022-12-20T01:26:54;0.67;;;0.30;;
66127;SDS011;52925;52.436;-1.952;2022-12-20T01:28:15;0.57;;;0.50;;
66127;SDS011;52925;52.436;-1.952;2022-12-20T01:29:35;0.57;;;0.20;;
66127;SDS011;52925;52.436;-1.952;2022-12-20T01:30:56;0.30;;;0.30;;
66127;SDS011;52925;52.436;-1.952;2022-12-20T01:32:16;0.70;;;0.30;;
66127;SDS011;52925;52.436;-1.952;2022-12-20T01:33:36;0.50;;;0.33;;
66127;SDS011;52925;52.436;-1.952;2022-12-20T01:34:57;0.50;;;0.30;;
66127;SDS011;52925;52.436;-1.952;2022-12-20T01:36:19;0.40;;;0.30;;
66127;SDS011;52925;52.436;-1.952;2022-12-20T01:37:42;0.77;;;0.30;;
66127;SDS011;52925;52.436;-1.952;2022-12-20T01:39:04;0.40;;;0.23;;
66127;SDS011;52925;52.436;-1.952;2022-12-20T01:40:28;0.20;;;0.20;;
66127;SDS011;52925;52.436;-1.952;2022-12-20T01:41:49;0.60;;;0.30;;
66127;SDS011;52925;52.436;-1.952;2022-12-20T01:43:10;0.50;;;0.33;;
66127;SDS011;52925;52.436;-1.952;2022-12-20T01:44:53;0.43;;;0.30;;
66127;SDS011;52925;52.436;-1.952;2022-12-20T01:46:16;0.30;;;0.20;;
66127;SDS011;52925;52.436;-1.952;2022-12-20T01:47:38;0.40;;;0.30;;
66127;SDS011;52925;52.436;-1.952;2022-12-20T01:49:00;1.10;;;0.40;;
66127;SDS011;52925;52.436;-1.952;2022-12-20T01:50:24;0.87;;;0.40;;
66127;SDS011;52925;52.436;-1.952;2022-12-20T01:51:45;0.30;;;0.30;;
66127;SDS011;52925;52.436;-1.952;2022-12-20T01:53:09;0.67;;;0.37;;
66127;SDS011;52925;52.436;-1.952;2022-12-20T01:54:31;0.30;;;0.23;;
66127;SDS011;52925;52.436;-1.952;2022-12-20T01:55:56;0.40;;;0.30;;
66127;SDS011;52925;52.436;-1.952;2022-12-20T01:57:20;0.20;;;0.20;;
66127;SDS011;52925;52.436;-1.952;2022-12-20T01:58:44;0.47;;;0.20;;
66127;SDS011;52925;52.436;-1.952;2022-12-20T02:00:08;0.20;;;0.20;;
66127;SDS011;52925;52.436;-1.952;2022-12-20T02:01:35;0.20;;;0.20;;
66127;SDS011;52925;52.436;-1.952;2022-12-20T02:02:57;0.73;;;0.23;;
66127;SDS011;52925;52.436;-1.952;2022-12-20T02:04:20;0.63;;;0.27;;
66127;SDS011;52925;52.436;-1.952;2022-12-20T02:05:41;0.20;;;0.20;;
66127;SDS011;52925;52.436;-1.952;2022-12-20T02:07:04;0.73;;;0.30;;
66127;SDS011;52925;52.436;-1.952;2022-12-20T02:08:26;0.30;;;0.20;;
66127;SDS011;52925;52.436;-1.952;2022-12-20T02:09:47;0.30;;;0.30;;
66127;SDS011;52925;52.436;-1.952;2022-12-20T02:11:12;0.30;;;0.27;;
66127;SDS011;52925;52.436;-1.952;2022-12-20T02:12:43;0.20;;;0.20;;
66127;SDS011;52925;52.436;-1.952;2022-12-20T02:14:07;1.93;;;0.20;;
66127;SDS011;52925;52.436;-1.952;2022-12-20T02:15:34;0.40;;;0.30;;
66127;SDS011;52925;52.436;-1.952;2022-12-20T02:17:08;0.40;;;0.20;;
66127;SDS011;52925;52.436;-1.952;2022-12-20T02:18:37;0.30;;;0.10;;
66127;SDS011;52925;52.436;-1.952;2022-12-20T02:20:14;1.40;;;0.23;;
66127;SDS011;52925;52.436;-1.952;2022-12-20T02:22:03;0.20;;;0.20;;
66127;SDS011;52925;52.436;-1.952;2022-12-20T02:25:38;0.30;;;0.13;;
66127;SDS011;52925;52.436;-1.952;2022-12-20T02:27:24;1.13;;;0.20;;
66127;SDS011;52925;52.436;-1.952;2022-12-20T02:28:57;1.37;;;0.20;;
66127;SDS011;52925;52.436;-1.952;2022-12-20T02:30:31;1.33;;;0.20;;
66127;SDS011;52925;52.436;-1.952;2022-12-20T02:31:56;0.13;;;0.13;;
66127;SDS011;52925;52.436;-1.952;2022-12-20T02:33:20;0.97;;;0.20;;
66127;SDS011;52925;52.436;-1.952;2022-12-20T02:34:44;0.83;;;0.20;;
66127;SDS011;52925;52.436;-1.952;2022-12-20T02:36:06;2.00;;;0.20;;
66127;SDS011;52925;52.436;-1.952;2022-12-20T02:37:27;0.60;;;0.20;;
66127;SDS011;52925;52.436;-1.952;2022-12-20T02:38:48;0.63;;;0.13;;
66127;SDS011;52925;52.436;-1.952;2022-12-20T02:40:10;0.20;;;0.10;;
66127;SDS011;52925;52.436;-1.952;2022-12-20T02:41:32;0.70;;;0.50;;
66127;SDS011;52925;52.436;-1.952;2022-12-20T02:42:58;1.80;;;0.20;;
66127;SDS011;52925;52.436;-1.952;2022-12-20T02:44:23;0.83;;;0.20;;
66127;SDS011;52925;52.436;-1.952;2022-12-20T02:46:04;0.53;;;0.20;;
66127;SDS011;52925;52.436;-1.952;2022-12-20T02:47:29;1.33;;;0.30;;
66127;SDS011;52925;52.436;-1.952;2022-12-20T02:48:53;0.50;;;0.10;;
66127;SDS011;52925;52.436;-1.952;2022-12-20T02:50:20;1.07;;;0.20;;
66127;SDS011;52925;52.436;-1.952;2022-12-20T02:51:45;0.80;;;0.20;;
66127;SDS011;52925;52.436;-1.952;2022-12-20T02:53:07;1.13;;;0.23;;
66127;SDS011;52925;52.436;-1.952;2022-12-20T02:54:30;0.43;;;0.20;;
66127;SDS011;52925;52.436;-1.952;2022-12-20T02:55:52;0.63;;;0.30;;
66127;SDS011;52925;52.436;-1.952;2022-12-20T02:57:20;2.47;;;0.40;;
66127;SDS011;52925;52.436;-1.952;2022-12-20T02:58:45;0.53;;;0.30;;
66127;SDS011;52925;52.436;-1.952;2022-12-20T03:00:11;3.10;;;0.30;;
66127;SDS011;52925;52.436;-1.952;2022-12-20T03:01:36;1.30;;;0.33;;
66127;SDS011;52925;52.436;-1.952;2022-12-20T03:03:00;2.77;;;0.30;;
66127;SDS011;52925;52.436;-1.952;2022-12-20T03:04:40;1.37;;;0.30;;
66127;SDS011;52925;52.436;-1.952;2022-12-20T03:06:03;2.17;;;0.20;;
66127;SDS011;52925;52.436;-1.952;2022-12-20T03:07:24;0.47;;;0.10;;
66127;SDS011;52925;52.436;-1.952;2022-12-20T03:08:49;1.40;;;0.20;;
66127;SDS011;52925;52.436;-1.952;2022-12-20T03:10:09;1.90;;;0.20;;
66127;SDS011;52925;52.436;-1.952;2022-12-20T03:11:30;1.93;;;0.20;;
66127;SDS011;52925;52.436;-1.952;2022-12-20T03:12:52;1.70;;;0.30;;
66127;SDS011;52925;52.436;-1.952;2022-12-20T03:14:12;1.53;;;0.37;;
66127;SDS011;52925;52.436;-1.952;2022-12-20T03:15:33;2.20;;;0.40;;
66127;SDS011;52925;52.436;-1.952;2022-12-20T03:16:56;1.70;;;0.30;;
66127;SDS011;52925;52.436;-1.952;2022-12-20T03:18:17;1.93;;;0.40;;
66127;SDS011;52925;52.436;-1.952;2022-12-20T03:19:37;2.67;;;0.43;;
66127;SDS011;52925;52.436;-1.952;2022-12-20T03:20:59;1.67;;;0.40;;
66127;SDS011;52925;52.436;-1.952;2022-12-20T03:22:20;2.13;;;0.30;;
66127;SDS011;52925;52.436;-1.952;2022-12-20T03:23:41;1.33;;;0.30;;
66127;SDS011;52925;52.436;-1.952;2022-12-20T03:25:02;2.00;;;0.30;;
66127;SDS011;52925;52.436;-1.952;2022-12-20T03:26:24;2.43;;;0.43;;
66127;SDS011;52925;52.436;-1.952;2022-12-20T03:27:49;1.67;;;0.20;;
66127;SDS011;52925;52.436;-1.952;2022-12-20T03:29:09;1.80;;;0.30;;
66127;SDS011;52925;52.436;-1.952;2022-12-20T03:30:30;3.27;;;0.30;;
66127;SDS011;52925;52.436;-1.952;2022-12-20T03:31:50;1.47;;;0.40;;
66127;SDS011;52925;52.436;-1.952;2022-12-20T03:33:12;2.70;;;0.33;;
66127;SDS011;52925;52.436;-1.952;2022-12-20T03:34:32;1.13;;;0.20;;
66127;SDS011;52925;52.436;-1.952;2022-12-20T03:35:53;1.83;;;0.40;;
66127;SDS011;52925;52.436;-1.952;2022-12-20T03:37:14;2.33;;;0.40;;
66127;SDS011;52925;52.436;-1.952;2022-12-20T03:38:34;2.77;;;0.50;;
66127;SDS011;52925;52.436;-1.952;2022-12-20T03:39:56;2.77;;;0.33;;
66127;SDS011;52925;52.436;-1.952;2022-12-20T03:41:17;1.57;;;0.30;;
66127;SDS011;52925;52.436;-1.952;2022-12-20T03:42:39;3.23;;;0.47;;
66127;SDS011;52925;52.436;-1.952;2022-12-20T03:44:00;2.47;;;0.30;;
66127;SDS011;52925;52.436;-1.952;2022-12-20T03:45:19;3.57;;;0.30;;
66127;SDS011;52925;52.436;-1.952;2022-12-20T03:46:41;1.90;;;0.40;;
66127;SDS011;52925;52.436;-1.952;2022-12-20T03:48:01;1.40;;;0.20;;
66127;SDS011;52925;52.436;-1.952;2022-12-20T03:49:25;1.10;;;0.50;;
66127;SDS011;52925;52.436;-1.952;2022-12-20T03:50:45;0.60;;;0.20;;
66127;SDS011;52925;52.436;-1.952;2022-12-20T03:52:06;2.00;;;0.30;;
66127;SDS011;52925;52.436;-1.952;2022-12-20T03:53:27;1.17;;;0.30;;
66127;SDS011;52925;52.436;-1.952;2022-12-20T03:54:48;2.07;;;0.20;;
66127;SDS011;52925;52.436;-1.952;2022-12-20T03:56:12;2.90;;;0.40;;
66127;SDS011;52925;52.436;-1.952;2022-12-20T03:57:33;1.47;;;0.50;;
66127;SDS011;52925;52.436;-1.952;2022-12-20T03:58:55;0.67;;;0.30;;
66127;SDS011;52925;52.436;-1.952;2022-12-20T04:00:16;3.50;;;0.60;;
66127;SDS011;52925;52.436;-1.952;2022-12-20T04:01:40;1.10;;;0.30;;
66127;SDS011;52925;52.436;-1.952;2022-12-20T04:03:00;2.57;;;0.40;;
66127;SDS011;52925;52.436;-1.952;2022-12-20T04:04:22;1.60;;;0.20;;
66127;SDS011;52925;52.436;-1.952;2022-12-20T04:05:43;2.53;;;0.30;;
66127;SDS011;52925;52.436;-1.952;2022-12-20T04:07:05;2.30;;;0.40;;
66127;SDS011;52925;52.436;-1.952;2022-12-20T04:08:28;3.00;;;0.43;;
66127;SDS011;52925;52.436;-1.952;2022-12-20T04:09:48;1.90;;;0.40;;
66127;SDS011;52925;52.436;-1.952;2022-12-20T04:11:09;1.00;;;0.30;;
66127;SDS011;52925;52.436;-1.952;2022-12-20T04:12:41;1.70;;;0.30;;
66127;SDS011;52925;52.436;-1.952;2022-12-20T04:14:04;2.30;;;0.57;;
66127;SDS011;52925;52.436;-1.952;2022-12-20T04:15:26;1.73;;;0.30;;
66127;SDS011;52925;52.436;-1.952;2022-12-20T04:16:46;1.97;;;0.40;;
66127;SDS011;52925;52.436;-1.952;2022-12-20T04:18:06;1.43;;;0.30;;
66127;SDS011;52925;52.436;-1.952;2022-12-20T04:19:29;2.83;;;0.40;;
66127;SDS011;52925;52.436;-1.952;2022-12-20T04:20:51;1.37;;;0.30;;
66127;SDS011;52925;52.436;-1.952;2022-12-20T04:22:16;1.83;;;0.30;;
66127;SDS011;52925;52.436;-1.952;2022-12-20T04:23:43;1.30;;;0.50;;
66127;SDS011;52925;52.436;-1.952;2022-12-20T04:25:04;2.80;;;0.30;;
66127;SDS011;52925;52.436;-1.952;2022-12-20T04:26:30;2.17;;;0.40;;
66127;SDS011;52925;52.436;-1.952;2022-12-20T04:27:53;2.50;;;0.60;;
66127;SDS011;52925;52.436;-1.952;2022-12-20T04:29:13;1.37;;;0.40;;
66127;SDS011;52925;52.436;-1.952;2022-12-20T04:30:34;3.37;;;0.40;;
66127;SDS011;52925;52.436;-1.952;2022-12-20T04:31:54;2.83;;;0.40;;
66127;SDS011;52925;52.436;-1.952;2022-12-20T04:33:15;2.20;;;0.30;;
66127;SDS011;52925;52.436;-1.952;2022-12-20T04:34:36;2.23;;;0.30;;
66127;SDS011;52925;52.436;-1.952;2022-12-20T04:35:58;2.10;;;0.50;;
66127;SDS011;52925;52.436;-1.952;2022-12-20T04:37:18;0.90;;;0.30;;
66127;SDS011;52925;52.436;-1.952;2022-12-20T04:38:46;1.77;;;0.40;;
66127;SDS011;52925;52.436;-1.952;2022-12-20T04:40:08;1.80;;;0.40;;
66127;SDS011;52925;52.436;-1.952;2022-12-20T04:41:41;1.43;;;0.20;;
66127;SDS011;52925;52.436;-1.952;2022-12-20T04:43:04;4.57;;;0.50;;
66127;SDS011;52925;52.436;-1.952;2022-12-20T04:44:24;2.10;;;0.23;;
66127;SDS011;52925;52.436;-1.952;2022-12-20T04:45:46;1.70;;;0.53;;
66127;SDS011;52925;52.436;-1.952;2022-12-20T04:47:08;1.67;;;0.57;;
66127;SDS011;52925;52.436;-1.952;2022-12-20T04:48:28;1.67;;;0.30;;
66127;SDS011;52925;52.436;-1.952;2022-12-20T04:49:50;2.53;;;0.40;;
66127;SDS011;52925;52.436;-1.952;2022-12-20T04:51:10;2.00;;;0.40;;
66127;SDS011;52925;52.436;-1.952;2022-12-20T04:52:31;1.53;;;0.30;;
66127;SDS011;52925;52.436;-1.952;2022-12-20T04:54:10;1.30;;;0.30;;
66127;SDS011;52925;52.436;-1.952;2022-12-20T04:55:39;1.87;;;0.43;;
66127;SDS011;52925;52.436;-1.952;2022-12-20T04:57:00;1.27;;;0.63;;
66127;SDS011;52925;52.436;-1.952;2022-12-20T04:58:21;1.53;;;0.40;;
66127;SDS011;52925;52.436;-1.952;2022-12-20T04:59:42;3.23;;;0.40;;
66127;SDS011;52925;52.436;-1.952;2022-12-20T05:01:04;1.00;;;0.50;;
66127;SDS011;52925;52.436;-1.952;2022-12-20T05:02:33;2.30;;;0.33;;
66127;SDS011;52925;52.436;-1.952;2022-12-20T05:03:58;1.20;;;0.30;;
66127;SDS011;52925;52.436;-1.952;2022-12-20T05:05:24;4.27;;;0.43;;
66127;SDS011;52925;52.436;-1.952;2022-12-20T05:06:47;2.60;;;0.60;;
66127;SDS011;52925;52.436;-1.952;2022-12-20T05:08:07;1.30;;;0.57;;
66127;SDS011;52925;52.436;-1.952;2022-12-20T05:09:28;2.50;;;0.40;;
66127;SDS011;52925;52.436;-1.952;2022-12-20T05:10:49;1.03;;;0.30;;
66127;SDS011;52925;52.436;-1.952;2022-12-20T05:12:10;1.27;;;0.33;;
66127;SDS011;52925;52.436;-1.952;2022-12-20T05:13:31;0.50;;;0.20;;
66127;SDS011;52925;52.436;-1.952;2022-12-20T05:14:51;1.80;;;0.37;;
66127;SDS011;52925;52.436;-1.952;2022-12-20T05:16:14;2.70;;;0.30;;
66127;SDS011;52925;52.436;-1.952;2022-12-20T05:17:35;1.57;;;0.50;;
66127;SDS011;52925;52.436;-1.952;2022-12-20T05:18:55;1.93;;;0.30;;
66127;SDS011;52925;52.436;-1.952;2022-12-20T05:20:16;0.90;;;0.40;;
66127;SDS011;52925;52.436;-1.952;2022-12-20T05:21:39;1.80;;;0.40;;
66127;SDS011;52925;52.436;-1.952;2022-12-20T05:23:17;1.30;;;0.23;;
66127;SDS011;52925;52.436;-1.952;2022-12-20T05:25:04;2.63;;;0.37;;
66127;SDS011;52925;52.436;-1.952;2022-12-20T05:26:45;2.70;;;0.60;;
66127;SDS011;52925;52.436;-1.952;2022-12-20T05:28:08;1.93;;;0.40;;
66127;SDS011;52925;52.436;-1.952;2022-12-20T05:29:29;1.60;;;0.30;;
66127;SDS011;52925;52.436;-1.952;2022-12-20T05:30:50;1.57;;;0.40;;
66127;SDS011;52925;52.436;-1.952;2022-12-20T05:32:09;2.73;;;0.57;;
66127;SDS011;52925;52.436;-1.952;2022-12-20T05:33:33;0.53;;;0.30;;
66127;SDS011;52925;52.436;-1.952;2022-12-20T05:34:55;2.17;;;0.40;;
66127;SDS011;52925;52.436;-1.952;2022-12-20T05:36:16;2.07;;;0.40;;
66127;SDS011;52925;52.436;-1.952;2022-12-20T05:37:38;2.67;;;0.40;;
66127;SDS011;52925;52.436;-1.952;2022-12-20T05:39:06;1.50;;;0.40;;
66127;SDS011;52925;52.436;-1.952;2022-12-20T05:40:32;1.13;;;0.40;;
66127;SDS011;52925;52.436;-1.952;2022-12-20T05:41:54;3.00;;;0.57;;
66127;SDS011;52925;52.436;-1.952;2022-12-20T05:43:18;1.27;;;0.37;;
66127;SDS011;52925;52.436;-1.952;2022-12-20T05:44:39;1.03;;;0.50;;
66127;SDS011;52925;52.436;-1.952;2022-12-20T05:46:01;1.93;;;0.60;;
66127;SDS011;52925;52.436;-1.952;2022-12-20T05:47:29;2.07;;;0.50;;
66127;SDS011;52925;52.436;-1.952;2022-12-20T05:48:55;1.40;;;0.40;;
66127;SDS011;52925;52.436;-1.952;2022-12-20T05:50:16;1.10;;;0.40;;
66127;SDS011;52925;52.436;-1.952;2022-12-20T05:51:57;1.23;;;0.50;;
66127;SDS011;52925;52.436;-1.952;2022-12-20T05:53:20;2.30;;;0.60;;
66127;SDS011;52925;52.436;-1.952;2022-12-20T05:54:44;3.90;;;0.50;;
66127;SDS011;52925;52.436;-1.952;2022-12-20T05:56:10;2.03;;;0.33;;
66127;SDS011;52925;52.436;-1.952;2022-12-20T05:57:31;1.37;;;0.40;;
66127;SDS011;52925;52.436;-1.952;2022-12-20T05:58:51;3.40;;;1.53;;
66127;SDS011;52925;52.436;-1.952;2022-12-20T06:00:12;3.10;;;0.53;;
66127;SDS011;52925;52.436;-1.952;2022-12-20T06:01:35;1.63;;;0.50;;
66127;SDS011;52925;52.436;-1.952;2022-12-20T06:02:57;1.97;;;0.63;;
66127;SDS011;52925;52.436;-1.952;2022-12-20T06:04:18;1.80;;;0.70;;
66127;SDS011;52925;52.436;-1.952;2022-12-20T06:05:40;3.43;;;0.93;;
66127;SDS011;52925;52.436;-1.952;2022-12-20T06:07:04;2.63;;;1.17;;
66127;SDS011;52925;52.436;-1.952;2022-12-20T06:08:29;4.63;;;1.00;;
66127;SDS011;52925;52.436;-1.952;2022-12-20T06:09:52;1.93;;;1.00;;
66127;SDS011;52925;52.436;-1.952;2022-12-20T06:11:17;2.37;;;0.90;;
66127;SDS011;52925;52.436;-1.952;2022-12-20T06:12:47;2.33;;;0.90;;
66127;SDS011;52925;52.436;-1.952;2022-12-20T06:14:08;2.80;;;0.80;;
66127;SDS011;52925;52.436;-1.952;2022-12-20T06:15:33;4.27;;;0.87;;
66127;SDS011;52925;52.436;-1.952;2022-12-20T06:16:55;1.17;;;0.60;;
66127;SDS011;52925;52.436;-1.952;2022-12-20T06:18:15;2.23;;;0.90;;
66127;SDS011;52925;52.436;-1.952;2022-12-20T06:19:37;3.97;;;0.90;;
66127;SDS011;52925;52.436;-1.952;2022-12-20T06:21:01;4.83;;;0.83;;
66127;SDS011;52925;52.436;-1.952;2022-12-20T06:22:22;6.03;;;1.13;;
66127;SDS011;52925;52.436;-1.952;2022-12-20T06:23:47;2.57;;;0.50;;
66127;SDS011;52925;52.436;-1.952;2022-12-20T06:25:09;5.43;;;0.60;;
66127;SDS011;52925;52.436;-1.952;2022-12-20T06:26:32;3.60;;;0.90;;
66127;SDS011;52925;52.436;-1.952;2022-12-20T06:27:56;1.43;;;0.77;;
66127;SDS011;52925;52.436;-1.952;2022-12-20T06:29:17;1.10;;;0.50;;
66127;SDS011;52925;52.436;-1.952;2022-12-20T06:30:53;2.80;;;0.90;;
66127;SDS011;52925;52.436;-1.952;2022-12-20T06:32:35;3.27;;;0.80;;
66127;SDS011;52925;52.436;-1.952;2022-12-20T06:33:57;3.43;;;0.87;;
66127;SDS011;52925;52.436;-1.952;2022-12-20T06:35:23;2.73;;;1.00;;
66127;SDS011;52925;52.436;-1.952;2022-12-20T06:36:47;2.30;;;0.60;;
66127;SDS011;52925;52.436;-1.952;2022-12-20T06:38:12;1.43;;;0.70;;
66127;SDS011;52925;52.436;-1.952;2022-12-20T06:39:35;4.17;;;0.70;;
66127;SDS011;52925;52.436;-1.952;2022-12-20T06:40:57;1.80;;;0.70;;
66127;SDS011;52925;52.436;-1.952;2022-12-20T06:42:18;1.20;;;0.50;;
66127;SDS011;52925;52.436;-1.952;2022-12-20T06:43:39;3.80;;;0.70;;
66127;SDS011;52925;52.436;-1.952;2022-12-20T06:45:01;2.90;;;0.57;;
66127;SDS011;52925;52.436;-1.952;2022-12-20T06:46:22;1.93;;;0.63;;
66127;SDS011;52925;52.436;-1.952;2022-12-20T06:47:43;2.00;;;0.70;;
66127;SDS011;52925;52.436;-1.952;2022-12-20T06:49:03;3.07;;;0.80;;
66127;SDS011;52925;52.436;-1.952;2022-12-20T06:50:24;1.97;;;0.67;;
66127;SDS011;52925;52.436;-1.952;2022-12-20T06:51:46;2.43;;;0.63;;
66127;SDS011;52925;52.436;-1.952;2022-12-20T06:53:08;2.17;;;0.70;;
66127;SDS011;52925;52.436;-1.952;2022-12-20T06:54:29;1.37;;;0.63;;
66127;SDS011;52925;52.436;-1.952;2022-12-20T06:55:51;3.43;;;0.70;;
66127;SDS011;52925;52.436;-1.952;2022-12-20T06:57:13;3.57;;;0.80;;
66127;SDS011;52925;52.436;-1.952;2022-12-20T06:58:36;2.70;;;0.70;;
66127;SDS011;52925;52.436;-1.952;2022-12-20T06:59:57;1.40;;;0.77;;
66127;SDS011;52925;52.436;-1.952;2022-12-20T07:01:17;1.60;;;0.70;;
66127;SDS011;52925;52.436;-1.952;2022-12-20T07:02:38;2.67;;;0.80;;
66127;SDS011;52925;52.436;-1.952;2022-12-20T07:03:59;3.30;;;0.70;;
66127;SDS011;52925;52.436;-1.952;2022-12-20T07:05:20;2.03;;;0.70;;
66127;SDS011;52925;52.436;-1.952;2022-12-20T07:06:41;2.73;;;0.70;;
66127;SDS011;52925;52.436;-1.952;2022-12-20T07:08:02;1.27;;;0.60;;
66127;SDS011;52925;52.436;-1.952;2022-12-20T07:09:23;3.47;;;0.73;;
66127;SDS011;52925;52.436;-1.952;2022-12-20T07:10:44;1.13;;;0.57;;
66127;SDS011;52925;52.436;-1.952;2022-12-20T07:12:06;2.97;;;0.70;;
66127;SDS011;52925;52.436;-1.952;2022-12-20T07:13:28;6.97;;;0.87;;
66127;SDS011;52925;52.436;-1.952;2022-12-20T07:14:49;2.67;;;0.80;;
66127;SDS011;52925;52.436;-1.952;2022-12-20T07:16:10;2.77;;;1.00;;
66127;SDS011;52925;52.436;-1.952;2022-12-20T07:17:32;3.43;;;1.10;;
66127;SDS011;52925;52.436;-1.952;2022-12-20T07:18:53;4.60;;;0.93;;
66127;SDS011;52925;52.436;-1.952;2022-12-20T07:20:13;3.33;;;0.97;;
66127;SDS011;52925;52.436;-1.952;2022-12-20T07:21:34;2.50;;;0.97;;
66127;SDS011;52925;52.436;-1.952;2022-12-20T07:22:55;2.50;;;0.90;;
66127;SDS011;52925;52.436;-1.952;2022-12-20T07:24:16;3.03;;;1.00;;
66127;SDS011;52925;52.436;-1.952;2022-12-20T07:25:37;2.17;;;0.90;;
66127;SDS011;52925;52.436;-1.952;2022-12-20T07:26:58;2.40;;;1.27;;
66127;SDS011;52925;52.436;-1.952;2022-12-20T07:28:20;4.83;;;1.90;;
66127;SDS011;52925;52.436;-1.952;2022-12-20T07:29:41;2.47;;;1.40;;
66127;SDS011;52925;52.436;-1.952;2022-12-20T07:31:03;3.43;;;1.60;;
66127;SDS011;52925;52.436;-1.952;2022-12-20T07:32:24;5.13;;;1.40;;
66127;SDS011;52925;52.436;-1.952;2022-12-20T07:33:44;3.60;;;1.57;;
66127;SDS011;52925;52.436;-1.952;2022-12-20T07:35:05;3.67;;;2.17;;
66127;SDS011;52925;52.436;-1.952;2022-12-20T07:36:26;5.30;;;2.20;;
66127;SDS011;52925;52.436;-1.952;2022-12-20T07:37:47;2.27;;;1.50;;
66127;SDS011;52925;52.436;-1.952;2022-12-20T07:39:08;4.50;;;2.17;;
66127;SDS011;52925;52.436;-1.952;2022-12-20T07:40:28;5.73;;;2.43;;
66127;SDS011;52925;52.436;-1.952;2022-12-20T07:41:51;3.20;;;2.17;;
66127;SDS011;52925;52.436;-1.952;2022-12-20T07:43:14;5.47;;;3.23;;
66127;SDS011;52925;52.436;-1.952;2022-12-20T07:44:36;5.07;;;2.57;;
66127;SDS011;52925;52.436;-1.952;2022-12-20T07:45:57;6.87;;;2.87;;
66127;SDS011;52925;52.436;-1.952;2022-12-20T07:47:18;5.37;;;3.43;;
66127;SDS011;52925;52.436;-1.952;2022-12-20T07:48:39;9.00;;;4.27;;
66127;SDS011;52925;52.436;-1.952;2022-12-20T07:49:59;5.57;;;3.97;;
66127;SDS011;52925;52.436;-1.952;2022-12-20T07:51:22;7.83;;;5.43;;
66127;SDS011;52925;52.436;-1.952;2022-12-20T07:52:46;7.80;;;4.17;;
66127;SDS011;52925;52.436;-1.952;2022-12-20T07:54:10;5.57;;;3.70;;
66127;SDS011;52925;52.436;-1.952;2022-12-20T07:55:33;4.40;;;3.33;;
66127;SDS011;52925;52.436;-1.952;2022-12-20T07:56:55;8.67;;;3.90;;
66127;SDS011;52925;52.436;-1.952;2022-12-20T07:58:20;5.33;;;3.80;;
66127;SDS011;52925;52.436;-1.952;2022-12-20T07:59:43;8.00;;;3.30;;
66127;SDS011;52925;52.436;-1.952;2022-12-20T08:01:06;4.90;;;3.40;;
66127;SDS011;52925;52.436;-1.952;2022-12-20T08:02:30;5.87;;;3.87;;
66127;SDS011;52925;52.436;-1.952;2022-12-20T08:03:57;5.83;;;3.57;;
66127;SDS011;52925;52.436;-1.952;2022-12-20T08:05:21;6.47;;;3.80;;
66127;SDS011;52925;52.436;-1.952;2022-12-20T08:06:42;7.03;;;4.07;;
66127;SDS011;52925;52.436;-1.952;2022-12-20T08:08:04;6.80;;;3.93;;
66127;SDS011;52925;52.436;-1.952;2022-12-20T08:09:25;4.80;;;3.20;;
66127;SDS011;52925;52.436;-1.952;2022-12-20T08:10:49;7.03;;;3.43;;
66127;SDS011;52925;52.436;-1.952;2022-12-20T08:12:10;5.00;;;3.00;;
66127;SDS011;52925;52.436;-1.952;2022-12-20T08:13:34;7.37;;;3.37;;